createdAt,value
2018-06-11T00:01:28.935Z,75.60
2018-06-11T00:03:57.572Z,75.60
2018-06-11T00:06:25.977Z,75.50
2018-06-11T00:08:54.366Z,75.40
2018-06-11T00:11:22.770Z,75.40
2018-06-11T00:13:51.205Z,75.70
2018-06-11T00:16:19.682Z,75.90
2018-06-11T00:18:48.037Z,76.00
2018-06-11T00:21:16.487Z,76.10
2018-06-11T00:23:44.926Z,76.30
2018-06-11T00:26:13.537Z,76.40
2018-06-11T00:28:41.902Z,76.60
2018-06-11T00:31:10.292Z,76.70
2018-06-11T00:33:39.649Z,76.50
2018-06-11T00:36:08.006Z,76.50
2018-06-11T00:38:36.345Z,76.40
2018-06-11T00:41:04.677Z,76.40
2018-06-11T00:43:33.161Z,76.50
2018-06-11T00:46:01.614Z,76.60
2018-06-11T00:48:29.973Z,76.50
2018-06-11T00:50:58.353Z,76.40
2018-06-11T00:53:26.735Z,76.20
2018-06-11T00:56:07.529Z,76.50
2018-06-11T00:58:36.014Z,76.50
2018-06-11T01:01:04.907Z,76.60
2018-06-11T01:03:33.430Z,77.00
2018-06-11T01:06:01.923Z,76.90
2018-06-11T01:08:30.368Z,76.50
2018-06-11T01:10:58.746Z,77.00
2018-06-11T01:13:27.205Z,76.70
2018-06-11T01:15:55.588Z,76.60
2018-06-11T01:18:24.063Z,76.40
2018-06-11T01:20:52.566Z,76.10
2018-06-11T01:23:21.139Z,76.30
2018-06-11T01:25:49.520Z,76.30
2018-06-11T01:28:17.965Z,76.30
2018-06-11T01:30:46.345Z,76.30
2018-06-11T01:33:14.750Z,76.60
2018-06-11T01:35:43.189Z,76.60
2018-06-11T01:43:07.800Z,77.30
2018-06-11T01:45:36.193Z,77.40
2018-06-11T01:48:04.542Z,77.40
2018-06-11T01:50:32.926Z,77.70
2018-06-11T01:53:01.274Z,77.80
2018-06-11T01:55:29.652Z,78.20
2018-06-11T01:57:57.998Z,78.10
2018-06-11T02:00:26.379Z,78.50
2018-06-11T02:02:54.702Z,78.80
2018-06-11T02:05:23.064Z,78.80
2018-06-11T02:07:51.417Z,78.90
2018-06-11T02:10:19.828Z,79.20
2018-06-11T02:12:48.306Z,79.20
2018-06-11T02:15:16.654Z,79.00
2018-06-11T02:17:45.074Z,78.80
2018-06-11T02:20:13.502Z,78.60
2018-06-11T02:22:41.886Z,78.70
2018-06-11T02:25:10.241Z,79.00
2018-06-11T02:27:38.635Z,79.20
2018-06-11T02:30:06.998Z,79.20
2018-06-11T02:32:35.389Z,79.20
2018-06-11T02:35:03.912Z,79.40
2018-06-11T02:37:32.390Z,79.50
2018-06-11T02:40:00.941Z,79.80
2018-06-11T02:42:29.501Z,80.10
2018-06-11T02:44:57.889Z,79.90
2018-06-11T02:47:26.246Z,79.80
2018-06-11T02:49:54.564Z,80.00
2018-06-11T02:52:22.973Z,79.50
2018-06-11T02:54:51.441Z,79.50
2018-06-11T02:57:19.857Z,79.50
2018-06-11T02:59:48.392Z,79.50
2018-06-11T03:02:16.774Z,79.50
2018-06-11T03:04:45.246Z,79.50
2018-06-11T03:07:13.694Z,79.40
2018-06-11T03:09:42.057Z,79.40
2018-06-11T03:12:10.433Z,79.40
2018-06-11T03:14:38.931Z,79.20
2018-06-11T03:17:07.389Z,79.10
2018-06-11T03:19:35.741Z,78.90
2018-06-11T03:22:04.106Z,79.10
2018-06-11T03:24:32.654Z,79.20
2018-06-11T03:27:01.033Z,79.30
2018-06-11T03:29:29.607Z,79.10
2018-06-11T03:31:57.953Z,79.00
2018-06-11T03:34:26.351Z,78.60
2018-06-11T03:36:54.808Z,78.50
2018-06-11T03:39:23.223Z,79.10
2018-06-11T03:41:51.603Z,79.70
2018-06-11T03:44:19.962Z,78.80
2018-06-11T03:46:48.470Z,79.20
2018-06-11T03:49:16.926Z,79.00
2018-06-11T03:51:45.434Z,78.60
2018-06-11T03:54:13.807Z,78.40
2018-06-11T03:56:42.185Z,78.10
2018-06-11T03:59:10.616Z,77.70
2018-06-11T04:01:38.975Z,77.90
2018-06-11T04:04:07.404Z,77.80
2018-06-11T04:06:35.834Z,77.50
2018-06-11T04:09:06.090Z,77.40
2018-06-11T04:11:34.466Z,77.10
2018-06-11T04:14:02.969Z,77.30
2018-06-11T04:16:31.349Z,77.30
2018-06-11T04:18:59.747Z,77.90
2018-06-11T04:21:28.125Z,78.30
2018-06-11T04:23:56.562Z,78.60
2018-06-11T04:26:24.936Z,78.60
2018-06-11T04:28:53.289Z,78.90
2018-06-11T04:31:21.745Z,79.20
2018-06-11T04:33:50.118Z,79.20
2018-06-11T04:36:18.533Z,79.10
2018-06-11T04:38:47.017Z,79.30
2018-06-11T04:41:15.397Z,79.70
2018-06-11T04:43:43.816Z,79.80
2018-06-11T04:46:12.258Z,79.90
2018-06-11T04:48:40.599Z,80.00
2018-06-11T04:51:08.999Z,80.80
2018-06-11T04:56:05.511Z,80.60
2018-06-11T04:58:34.085Z,80.70
2018-06-11T05:01:02.519Z,80.50
2018-06-11T05:03:30.994Z,80.50
2018-06-11T05:05:59.386Z,81.30
2018-06-11T05:08:27.762Z,80.50
2018-06-11T05:10:56.226Z,80.50
2018-06-11T05:13:25.067Z,80.60
2018-06-11T05:15:53.601Z,80.50
2018-06-11T05:18:22.365Z,80.30
2018-06-11T05:20:50.921Z,81.20
2018-06-11T05:23:19.312Z,80.40
2018-06-11T05:25:47.782Z,80.30
2018-06-11T05:28:16.165Z,80.30
2018-06-11T05:30:44.598Z,80.20
2018-06-11T05:33:13.233Z,80.30
2018-06-11T05:35:41.804Z,80.30
2018-06-11T05:38:10.345Z,80.20
2018-06-11T05:40:38.842Z,80.30
2018-06-11T05:43:07.079Z,80.20
2018-06-11T05:45:35.507Z,80.10
2018-06-11T05:48:04.099Z,80.20
2018-06-11T05:50:32.459Z,80.50
2018-06-11T05:53:00.844Z,80.50
2018-06-11T05:55:29.266Z,80.60
2018-06-11T05:57:57.662Z,80.60
2018-06-11T06:00:26.279Z,80.30
2018-06-11T06:02:54.702Z,80.30
2018-06-11T06:05:23.178Z,80.20
2018-06-11T06:07:51.556Z,80.00
2018-06-11T06:10:19.946Z,80.00
2018-06-11T06:12:48.342Z,80.00
2018-06-11T06:15:16.746Z,80.00
2018-06-11T06:17:45.236Z,80.00
2018-06-11T06:20:13.651Z,80.00
2018-06-11T06:22:42.028Z,80.40
2018-06-11T06:25:10.470Z,80.50
2018-06-11T06:27:38.858Z,80.40
2018-06-11T06:30:07.299Z,80.40
2018-06-11T06:32:35.840Z,80.50
2018-06-11T06:35:04.400Z,80.60
2018-06-11T06:37:32.858Z,80.50
2018-06-11T06:40:01.214Z,80.40
2018-06-11T06:42:29.594Z,80.30
2018-06-11T06:44:58.018Z,81.40
2018-06-11T06:47:26.423Z,80.50
2018-06-11T06:49:54.778Z,80.70
2018-06-11T06:52:23.299Z,80.40
2018-06-11T06:54:51.646Z,80.10
2018-06-11T06:57:20.026Z,80.00
2018-06-11T06:59:48.380Z,79.80
2018-06-11T07:02:16.866Z,80.20
2018-06-11T07:04:45.450Z,80.30
2018-06-11T07:07:13.825Z,79.90
2018-06-11T07:09:42.225Z,79.80
2018-06-11T07:12:10.594Z,79.90
2018-06-11T07:14:38.936Z,79.80
2018-06-11T07:17:07.359Z,79.70
2018-06-11T07:19:35.685Z,79.50
2018-06-11T07:22:04.063Z,79.40
2018-06-11T07:24:32.470Z,79.50
2018-06-11T07:27:01.019Z,79.80
2018-06-11T07:29:29.414Z,79.90
2018-06-11T07:31:57.750Z,79.90
2018-06-11T07:36:54.329Z,79.90
2018-06-11T07:39:25.856Z,79.60
2018-06-11T07:41:54.227Z,79.50
2018-06-11T07:44:22.680Z,79.70
2018-06-11T07:46:51.036Z,79.60
2018-06-11T07:49:19.438Z,79.70
2018-06-11T07:51:47.945Z,79.60
2018-06-11T07:54:16.347Z,79.90
2018-06-11T07:56:44.689Z,78.90
2018-06-11T07:59:13.062Z,78.60
2018-06-11T08:01:41.384Z,78.80
2018-06-11T08:04:09.754Z,78.00
2018-06-11T08:06:38.198Z,78.20
2018-06-11T08:09:08.073Z,79.50
2018-06-11T08:11:36.548Z,78.70
2018-06-11T08:14:04.993Z,78.40
2018-06-11T08:16:33.412Z,78.40
2018-06-11T08:19:01.979Z,77.90
2018-06-11T08:21:30.414Z,77.60
2018-06-11T08:23:58.718Z,77.70
2018-06-11T08:26:27.133Z,77.60
2018-06-11T08:28:55.594Z,77.10
2018-06-11T08:31:24.007Z,76.80
2018-06-11T08:33:52.373Z,76.70
2018-06-11T08:36:20.734Z,76.10
2018-06-11T08:38:49.197Z,76.00
2018-06-11T08:43:45.729Z,77.00
2018-06-11T08:46:14.203Z,77.60
2018-06-11T08:48:42.653Z,76.60
2018-06-11T08:51:11.073Z,76.20
2018-06-11T08:53:39.437Z,76.40
2018-06-11T08:56:07.966Z,75.40
2018-06-11T08:58:36.473Z,74.90
2018-06-11T09:01:04.929Z,74.30
2018-06-11T09:03:33.348Z,74.20
2018-06-11T09:06:01.818Z,74.30
2018-06-11T09:08:30.317Z,74.30
2018-06-11T09:10:58.793Z,74.70
2018-06-11T09:13:27.343Z,74.30
2018-06-11T09:15:55.700Z,75.90
2018-06-11T09:18:24.248Z,74.30
2018-06-11T09:20:52.589Z,73.70
2018-06-11T09:23:20.959Z,73.40
2018-06-11T09:25:49.334Z,72.90
2018-06-11T09:28:17.715Z,73.80
2018-06-11T09:30:46.129Z,73.20
2018-06-11T09:33:14.929Z,73.00
2018-06-11T09:35:43.401Z,72.80
2018-06-11T09:38:11.844Z,73.10
2018-06-11T09:40:40.282Z,73.00
2018-06-11T09:43:08.629Z,72.80
2018-06-11T09:45:37.146Z,72.60
2018-06-11T09:48:05.539Z,72.70
2018-06-11T09:50:33.885Z,73.00
2018-06-11T09:53:02.379Z,73.50
2018-06-11T09:55:30.765Z,73.80
2018-06-11T09:57:59.114Z,74.00
2018-06-11T10:03:00.638Z,73.40
2018-06-11T10:05:29.003Z,73.60
2018-06-11T10:07:57.460Z,74.20
2018-06-11T10:10:25.825Z,73.70
2018-06-11T10:12:54.205Z,72.80
2018-06-11T10:15:22.646Z,73.10
2018-06-11T10:17:51.030Z,74.20
2018-06-11T10:20:19.590Z,73.90
2018-06-11T10:22:47.952Z,73.60
2018-06-11T10:25:16.377Z,72.80
2018-06-11T10:27:44.737Z,72.80
2018-06-11T10:30:13.104Z,72.50
2018-06-11T10:32:41.639Z,73.80
2018-06-11T10:35:10.269Z,72.90
2018-06-11T10:37:38.649Z,72.60
2018-06-11T10:40:07.036Z,72.20
2018-06-11T10:42:35.526Z,74.10
2018-06-11T10:45:04.051Z,73.00
2018-06-11T10:47:32.435Z,71.00
2018-06-11T10:50:00.790Z,69.00
2018-06-11T10:52:29.321Z,69.10
2018-06-11T10:54:57.730Z,69.50
2018-06-11T10:57:26.195Z,69.20
2018-06-11T10:59:54.706Z,68.90
2018-06-11T11:02:23.107Z,69.60
2018-06-11T11:04:51.424Z,68.60
2018-06-11T11:07:19.923Z,68.30
2018-06-11T11:09:48.289Z,67.80
2018-06-11T11:12:16.668Z,67.20
2018-06-11T11:14:45.006Z,67.60
2018-06-11T11:17:13.413Z,67.40
2018-06-11T11:19:41.841Z,67.20
2018-06-11T11:22:10.297Z,67.40
2018-06-11T11:24:38.674Z,68.10
2018-06-11T11:27:07.227Z,67.80
2018-06-11T11:29:35.574Z,67.80
2018-06-11T11:32:04.446Z,67.60
2018-06-11T11:34:32.951Z,67.20
2018-06-11T11:37:01.377Z,66.70
2018-06-11T11:39:29.871Z,66.40
2018-06-11T11:41:58.245Z,66.50
2018-06-11T11:44:26.637Z,66.80
2018-06-11T11:49:23.064Z,65.50
2018-06-11T11:51:51.515Z,65.60
2018-06-11T11:54:19.896Z,65.80
2018-06-11T11:56:48.437Z,66.10
2018-06-11T11:59:16.794Z,65.50
2018-06-11T12:01:45.247Z,65.60
2018-06-11T12:04:13.721Z,67.10
2018-06-11T12:06:42.149Z,66.70
2018-06-11T12:09:10.522Z,66.30
2018-06-11T12:11:38.932Z,66.40
2018-06-11T12:14:07.388Z,66.60
2018-06-11T12:16:35.761Z,66.30
2018-06-11T12:19:04.155Z,65.60
2018-06-11T12:21:32.510Z,65.10
2018-06-11T12:24:00.915Z,65.30
2018-06-11T12:26:29.320Z,65.30
2018-06-11T12:28:57.650Z,64.00
2018-06-11T12:31:26.070Z,63.70
2018-06-11T12:33:54.426Z,63.40
2018-06-11T12:36:22.922Z,63.20
2018-06-11T12:38:51.273Z,62.70
2018-06-11T12:41:19.685Z,63.10
2018-06-11T12:43:48.058Z,63.80
2018-06-11T12:46:16.440Z,64.00
2018-06-11T12:48:44.880Z,63.30
2018-06-11T12:51:13.366Z,63.40
2018-06-11T12:53:41.712Z,64.00
2018-06-11T12:56:10.197Z,64.00
2018-06-11T12:58:38.774Z,64.80
2018-06-11T13:01:07.119Z,64.70
2018-06-11T13:03:35.569Z,65.10
2018-06-11T13:06:04.060Z,65.30
2018-06-11T13:08:32.458Z,65.40
2018-06-11T13:11:00.824Z,64.80
2018-06-11T13:13:29.268Z,64.70
2018-06-11T13:15:57.671Z,64.80
2018-06-11T13:18:26.138Z,64.70
2018-06-11T13:20:54.492Z,64.80
2018-06-11T13:25:51.090Z,63.80
2018-06-11T13:28:19.506Z,61.70
2018-06-11T13:30:47.984Z,62.00
2018-06-11T13:33:16.662Z,62.10
2018-06-11T13:35:45.055Z,61.70
2018-06-11T13:38:13.542Z,62.30
2018-06-11T13:40:42.053Z,61.30
2018-06-11T13:43:10.472Z,62.10
2018-06-11T13:45:38.914Z,62.50
2018-06-11T13:48:07.294Z,62.00
2018-06-11T13:50:35.717Z,61.60
2018-06-11T13:53:04.252Z,61.30
2018-06-11T13:55:32.675Z,61.10
2018-06-11T13:58:01.301Z,60.40
2018-06-11T14:00:29.665Z,60.50
2018-06-11T14:02:58.025Z,60.90
2018-06-11T14:05:26.489Z,60.90
2018-06-11T14:07:54.817Z,62.50
2018-06-11T14:10:23.311Z,62.30
2018-06-11T14:12:51.774Z,62.50
2018-06-11T14:15:20.302Z,63.20
2018-06-11T14:17:48.671Z,62.90
2018-06-11T14:20:17.046Z,62.80
2018-06-11T14:22:45.426Z,62.80
2018-06-11T14:25:13.814Z,63.20
2018-06-11T14:27:42.246Z,62.50
2018-06-11T14:30:10.590Z,63.60
2018-06-11T14:32:39.207Z,62.60
2018-06-11T14:35:07.565Z,61.00
2018-06-11T14:37:36.091Z,60.40
2018-06-11T14:40:04.519Z,60.80
2018-06-11T14:42:32.990Z,61.20
2018-06-11T14:45:01.334Z,60.90
2018-06-11T14:47:29.895Z,61.90
2018-06-11T14:49:58.274Z,62.10
2018-06-11T14:52:26.751Z,61.90
2018-06-11T14:54:55.115Z,62.50
2018-06-11T14:57:23.593Z,62.90
2018-06-11T14:59:52.017Z,62.10
2018-06-11T15:02:20.951Z,63.30
2018-06-11T15:04:49.324Z,64.40
2018-06-11T15:07:17.787Z,65.20
2018-06-11T15:09:46.232Z,66.30
2018-06-11T15:12:14.669Z,67.20
2018-06-11T15:14:43.224Z,68.10
2018-06-11T15:17:11.596Z,68.80
2018-06-11T15:19:39.998Z,69.40
2018-06-11T15:22:08.370Z,70.10
2018-06-11T15:24:36.772Z,71.00
2018-06-11T15:27:05.330Z,72.40
2018-06-11T15:29:33.751Z,73.20
2018-06-11T15:32:02.126Z,74.40
2018-06-11T15:34:30.567Z,74.60
2018-06-11T15:36:59.101Z,75.00
2018-06-11T15:39:27.542Z,74.70
2018-06-11T15:41:55.948Z,75.80
2018-06-11T15:44:24.341Z,76.20
2018-06-11T15:46:52.731Z,76.60
2018-06-11T15:49:21.441Z,76.80
2018-06-11T15:51:49.865Z,77.40
2018-06-11T15:54:18.290Z,75.50
2018-06-11T15:56:46.880Z,74.10
2018-06-11T15:59:15.327Z,72.80
2018-06-11T16:01:43.858Z,72.10
2018-06-11T16:06:40.379Z,71.50
2018-06-11T16:09:08.775Z,70.90
2018-06-11T16:11:37.190Z,71.80
2018-06-11T16:14:05.599Z,73.70
2018-06-11T16:16:34.082Z,76.70
2018-06-11T16:19:02.849Z,77.70
2018-06-11T16:21:31.381Z,78.80
2018-06-11T16:23:59.744Z,78.40
2018-06-11T16:26:28.227Z,78.30
2018-06-11T16:28:56.665Z,78.50
2018-06-11T16:31:25.072Z,77.60
2018-06-11T16:33:53.542Z,77.40
2018-06-11T16:36:21.982Z,77.00
2018-06-11T16:38:50.437Z,77.10
2018-06-11T16:41:18.889Z,76.90
2018-06-11T16:43:47.281Z,77.40
2018-06-11T16:46:15.688Z,77.30
2018-06-11T16:48:44.152Z,77.30
2018-06-11T16:51:12.648Z,77.70
2018-06-11T16:53:41.102Z,77.90
2018-06-11T16:56:09.564Z,78.20
2018-06-11T16:58:37.953Z,77.50
2018-06-11T17:01:06.640Z,77.80
2018-06-11T17:03:35.159Z,77.70
2018-06-11T17:06:03.782Z,78.00
2018-06-11T17:08:32.219Z,78.70
2018-06-11T17:11:00.632Z,78.90
2018-06-11T17:13:29.057Z,79.00
2018-06-11T17:15:57.596Z,78.50
2018-06-11T17:18:25.964Z,78.40
2018-06-11T17:20:54.437Z,78.10
2018-06-11T17:23:22.835Z,78.40
2018-06-11T17:25:51.334Z,78.00
2018-06-11T17:28:19.881Z,77.90
2018-06-11T17:30:48.361Z,77.70
2018-06-11T17:33:17.030Z,78.00
2018-06-11T17:35:45.502Z,78.40
2018-06-11T17:38:14.069Z,77.90
2018-06-11T17:40:43.920Z,77.60
2018-06-11T17:43:12.388Z,77.70
2018-06-11T17:45:40.904Z,77.50
2018-06-11T17:48:09.281Z,77.50
2018-06-11T17:50:38.532Z,78.10
2018-06-11T17:53:07.682Z,78.00
2018-06-11T17:55:36.302Z,78.20
2018-06-11T17:58:04.752Z,78.00
2018-06-11T18:00:33.312Z,77.50
2018-06-11T18:03:01.669Z,77.70
2018-06-11T18:05:30.179Z,77.70
2018-06-11T18:07:58.689Z,77.70
2018-06-11T18:10:27.167Z,77.80
2018-06-11T18:12:55.607Z,78.10
2018-06-11T18:15:24.211Z,78.60
2018-06-11T18:17:52.726Z,78.90
2018-06-11T18:22:49.366Z,79.30
2018-06-11T18:25:17.820Z,79.30
2018-06-11T18:27:46.335Z,79.20
2018-06-11T18:30:14.837Z,79.50
2018-06-11T18:32:43.464Z,79.60
2018-06-11T18:35:11.960Z,79.40
2018-06-11T18:37:40.625Z,79.10
2018-06-11T18:40:09.095Z,79.30
2018-06-11T18:42:37.672Z,79.30
2018-06-11T18:45:06.266Z,79.10
2018-06-11T18:47:35.000Z,78.90
2018-06-11T18:50:03.657Z,79.10
2018-06-11T18:52:32.134Z,79.10
2018-06-11T18:55:00.646Z,79.00
2018-06-11T18:57:29.184Z,78.80
2018-06-11T18:59:57.721Z,79.10
2018-06-11T19:02:26.382Z,79.10
2018-06-11T19:04:55.042Z,79.00
2018-06-11T19:07:23.623Z,78.60
2018-06-11T19:09:52.091Z,79.20
2018-06-11T19:12:20.796Z,79.40
2018-06-11T19:14:49.158Z,79.50
2018-06-11T19:17:18.671Z,79.70
2018-06-11T19:19:47.143Z,79.60
2018-06-11T19:22:15.712Z,79.40
2018-06-11T19:24:44.285Z,79.50
2018-06-11T19:27:12.742Z,79.60
2018-06-11T19:29:41.358Z,79.30
2018-06-11T19:32:10.636Z,79.20
2018-06-11T19:34:39.127Z,79.00
2018-06-11T19:37:07.735Z,79.00
2018-06-11T19:39:36.237Z,78.60
2018-06-11T19:42:04.779Z,78.60
2018-06-11T19:44:33.186Z,78.50
2018-06-11T19:47:01.660Z,78.60
2018-06-11T19:49:30.299Z,78.20
2018-06-11T19:51:58.693Z,78.00
2018-06-11T19:54:27.277Z,78.10
2018-06-11T19:56:55.810Z,77.80
2018-06-11T19:59:24.185Z,77.80
2018-06-11T20:01:52.680Z,77.80
2018-06-11T20:04:21.113Z,77.90
2018-06-11T20:06:49.589Z,77.90
2018-06-11T20:09:18.026Z,78.00
2018-06-11T20:11:46.550Z,78.00
2018-06-11T20:14:14.945Z,77.80
2018-06-11T20:16:43.418Z,77.70
2018-06-11T20:19:11.897Z,77.80
2018-06-11T20:21:40.329Z,77.70
2018-06-11T20:24:08.745Z,78.10
2018-06-11T20:26:37.408Z,78.70
2018-06-11T20:29:05.920Z,78.70
2018-06-11T20:31:34.311Z,78.80
2018-06-11T20:34:02.858Z,78.30
2018-06-11T20:36:31.436Z,78.40
2018-06-11T20:39:00.094Z,78.40
2018-06-11T20:41:28.496Z,78.30
2018-06-11T20:43:56.922Z,78.20
2018-06-11T20:46:25.374Z,78.10
2018-06-11T20:48:53.847Z,78.30
2018-06-11T20:51:22.339Z,78.30
2018-06-11T20:53:50.906Z,78.50
2018-06-11T20:56:19.378Z,78.70
2018-06-11T20:58:47.798Z,78.80
2018-06-11T21:01:16.245Z,78.90
2018-06-11T21:03:44.697Z,78.80
2018-06-11T21:06:13.069Z,78.90
2018-06-11T21:08:41.590Z,78.90
2018-06-11T21:11:10.036Z,78.70
2018-06-11T21:13:38.543Z,78.80
2018-06-11T21:16:07.082Z,79.10
2018-06-11T21:18:35.454Z,78.80
2018-06-11T21:21:03.883Z,79.00
2018-06-11T21:23:32.385Z,79.10
2018-06-11T21:26:00.968Z,79.20
2018-06-11T21:28:29.448Z,79.30
2018-06-11T21:30:57.848Z,79.70
2018-06-11T21:33:26.194Z,79.70
2018-06-11T21:35:54.626Z,79.80
2018-06-11T21:38:23.087Z,79.70
2018-06-11T21:40:51.530Z,79.60
2018-06-11T21:43:19.942Z,79.70
2018-06-11T21:45:48.363Z,79.50
2018-06-11T21:48:16.867Z,79.00
2018-06-11T21:50:45.241Z,79.00
2018-06-11T21:53:13.590Z,79.10
2018-06-11T21:55:42.096Z,79.00
2018-06-11T21:58:10.636Z,78.60
2018-06-11T22:00:39.354Z,78.80
2018-06-11T22:03:07.991Z,79.00
2018-06-11T22:05:36.338Z,78.70
2018-06-11T22:08:04.899Z,78.80
2018-06-11T22:10:33.292Z,78.90
2018-06-11T22:13:01.847Z,78.80
2018-06-11T22:15:30.350Z,78.60
2018-06-11T22:17:58.754Z,79.00
2018-06-11T22:20:27.298Z,79.30
2018-06-11T22:22:55.781Z,79.00
2018-06-11T22:25:24.234Z,79.70
2018-06-11T22:27:52.633Z,79.10
2018-06-11T22:30:21.139Z,79.10
2018-06-11T22:32:49.636Z,79.20
2018-06-11T22:35:18.210Z,79.30
2018-06-11T22:37:46.601Z,79.30
2018-06-11T22:40:15.162Z,78.90
2018-06-11T22:42:43.630Z,78.90
2018-06-11T22:45:12.130Z,79.00
2018-06-11T22:47:40.737Z,78.90
2018-06-11T22:50:09.263Z,78.80
2018-06-11T22:52:37.776Z,78.90
2018-06-11T22:55:06.237Z,79.70
2018-06-11T22:57:34.697Z,78.40
2018-06-11T23:00:03.134Z,78.20
2018-06-11T23:02:31.505Z,78.60
2018-06-11T23:04:59.860Z,78.10
2018-06-11T23:07:28.245Z,78.60
2018-06-11T23:09:56.634Z,78.40
2018-06-11T23:12:25.191Z,78.80
2018-06-11T23:14:53.670Z,78.70
2018-06-11T23:17:22.053Z,78.90
2018-06-11T23:19:50.635Z,78.40
2018-06-11T23:22:19.027Z,78.60
2018-06-11T23:24:47.430Z,78.80
2018-06-11T23:27:15.855Z,78.80
2018-06-11T23:29:44.218Z,79.00
2018-06-11T23:32:12.669Z,78.90
2018-06-11T23:34:41.068Z,78.90
2018-06-11T23:37:09.435Z,78.70
2018-06-11T23:39:37.836Z,78.60
2018-06-11T23:42:06.170Z,78.70
2018-06-11T23:44:34.595Z,78.00
2018-06-11T23:47:02.983Z,78.20
2018-06-11T23:49:31.450Z,78.10
2018-06-11T23:51:59.784Z,77.40
2018-06-11T23:54:28.206Z,77.70
2018-06-11T23:56:56.645Z,77.90
2018-06-11T23:59:25.016Z,77.70
